createdAt,value
2017-11-14T00:02:38.923Z,19.63
2017-11-14T00:05:44.449Z,13.60
2017-11-14T00:08:49.830Z,14.40
2017-11-14T00:11:55.405Z,24.40
2017-11-14T00:15:00.985Z,15.87
2017-11-14T00:18:06.986Z,17.90
2017-11-14T00:21:12.107Z,23.20
2017-11-14T00:24:17.909Z,18.03
2017-11-14T00:27:22.933Z,17.87
2017-11-14T00:30:28.613Z,24.80
2017-11-14T00:33:35.342Z,21.73
2017-11-14T00:36:40.874Z,22.10
2017-11-14T00:39:47.163Z,21.13
2017-11-14T00:42:52.175Z,16.07
2017-11-14T00:45:57.881Z,20.83
2017-11-14T00:49:02.982Z,16.83
2017-11-14T00:52:08.891Z,19.20
2017-11-14T00:55:13.948Z,21.10
2017-11-14T00:58:18.812Z,24.77
2017-11-14T01:01:23.639Z,25.83
2017-11-14T01:04:28.565Z,18.00
2017-11-14T01:07:34.515Z,21.80
2017-11-14T01:10:39.512Z,16.70
2017-11-14T01:13:45.053Z,19.90
2017-11-14T01:16:50.344Z,18.07
2017-11-14T01:19:55.757Z,20.93
2017-11-14T01:23:01.477Z,20.47
2017-11-14T01:26:06.553Z,19.40
2017-11-14T01:29:11.998Z,59.60
2017-11-14T01:32:16.960Z,22.60
2017-11-14T01:35:21.897Z,17.60
2017-11-14T01:38:26.862Z,15.83
2017-11-14T01:41:32.528Z,28.13
2017-11-14T01:44:37.817Z,16.50
2017-11-14T01:47:43.104Z,13.90
2017-11-14T01:50:48.789Z,14.67
2017-11-14T01:53:54.513Z,19.93
2017-11-14T01:57:00.340Z,18.37
2017-11-14T02:00:05.547Z,19.90
2017-11-14T02:03:10.745Z,14.93
2017-11-14T02:06:16.070Z,13.93
2017-11-14T02:09:22.527Z,14.83
2017-11-14T02:12:28.453Z,18.23
2017-11-14T02:15:33.422Z,13.37
2017-11-14T02:18:39.170Z,17.73
2017-11-14T02:21:45.337Z,19.40
2017-11-14T02:24:51.029Z,16.23
2017-11-14T02:27:59.648Z,19.63
2017-11-14T02:31:04.634Z,19.13
2017-11-14T02:34:10.161Z,15.10
2017-11-14T02:37:15.012Z,16.60
2017-11-14T02:40:20.844Z,14.57
2017-11-14T02:43:25.912Z,14.10
2017-11-14T02:46:31.380Z,17.50
2017-11-14T02:49:36.978Z,11.30
2017-11-14T02:52:42.878Z,13.93
2017-11-14T02:55:48.830Z,18.27
2017-11-14T02:58:54.549Z,20.37
2017-11-14T03:01:59.772Z,12.20
2017-11-14T03:05:05.935Z,14.87
2017-11-14T03:08:11.652Z,18.00
2017-11-14T03:11:17.424Z,14.33
2017-11-14T03:14:22.582Z,17.30
2017-11-14T03:17:29.438Z,13.53
2017-11-14T03:20:34.634Z,12.87
2017-11-14T03:23:39.621Z,10.80
2017-11-14T03:26:45.252Z,17.47
2017-11-14T03:29:50.244Z,14.13
2017-11-14T03:32:55.705Z,14.33
2017-11-14T03:36:01.054Z,14.33
2017-11-14T03:39:06.694Z,20.10
2017-11-14T03:42:11.754Z,15.00
2017-11-14T03:45:17.431Z,19.53
2017-11-14T03:48:22.788Z,16.63
2017-11-14T03:51:28.668Z,14.57
2017-11-14T03:54:33.837Z,15.13
2017-11-14T03:57:39.311Z,16.10
2017-11-14T04:00:44.824Z,11.53
2017-11-14T04:03:50.413Z,14.03
2017-11-14T04:06:55.383Z,13.07
2017-11-14T04:10:01.029Z,11.00
2017-11-14T04:13:06.603Z,12.90
2017-11-14T04:16:11.830Z,16.47
2017-11-14T04:19:17.336Z,13.37
2017-11-14T04:22:23.244Z,10.40
2017-11-14T04:25:28.641Z,13.30
2017-11-14T04:28:34.300Z,10.83
2017-11-14T04:31:39.413Z,12.50
2017-11-14T04:34:44.349Z,24.43
2017-11-14T04:37:49.516Z,14.27
2017-11-14T04:40:55.921Z,17.20
2017-11-14T04:44:00.893Z,16.10
2017-11-14T04:47:06.168Z,12.50
2017-11-14T04:50:11.828Z,12.87
2017-11-14T04:53:17.621Z,14.73
2017-11-14T04:56:22.739Z,13.70
2017-11-14T04:59:28.502Z,13.03
2017-11-14T05:02:34.049Z,16.80
2017-11-14T05:05:39.788Z,24.60
2017-11-14T05:08:47.881Z,17.60
2017-11-14T05:11:56.716Z,12.80
2017-11-14T05:15:04.026Z,9.23
2017-11-14T05:18:09.355Z,13.83
2017-11-14T05:21:20.218Z,18.83
2017-11-14T05:24:26.700Z,14.30
2017-11-14T05:27:32.110Z,13.40
2017-11-14T05:30:37.941Z,11.37
2017-11-14T05:33:47.082Z,14.87
2017-11-14T05:36:58.158Z,16.13
2017-11-14T05:40:03.901Z,15.83
2017-11-14T05:43:09.990Z,13.43
2017-11-14T05:46:16.809Z,14.90
2017-11-14T05:49:23.025Z,18.60
2017-11-14T05:52:28.737Z,12.73
2017-11-14T05:55:34.852Z,15.17
2017-11-14T05:58:40.228Z,40.83
2017-11-14T06:01:46.001Z,21.63
2017-11-14T06:04:52.333Z,17.93
2017-11-14T06:07:57.378Z,21.70
2017-11-14T06:11:02.947Z,10.70
2017-11-14T06:14:08.441Z,19.00
2017-11-14T06:17:13.751Z,22.40
2017-11-14T06:20:18.813Z,14.43
2017-11-14T06:23:24.153Z,24.33
2017-11-14T06:26:29.388Z,19.97
2017-11-14T06:29:35.046Z,20.47
2017-11-14T06:32:40.001Z,18.43
2017-11-14T06:35:44.649Z,18.93
2017-11-14T06:38:50.777Z,20.03
2017-11-14T06:41:56.321Z,18.77
2017-11-14T06:45:01.466Z,20.67
2017-11-14T06:48:07.828Z,18.13
2017-11-14T06:51:12.921Z,15.10
2017-11-14T06:54:18.542Z,17.60
2017-11-14T06:57:24.152Z,24.27
2017-11-14T07:00:29.813Z,17.47
2017-11-14T07:03:35.603Z,13.97
2017-11-14T07:06:41.342Z,15.27
2017-11-14T07:09:47.569Z,17.00
2017-11-14T07:12:52.497Z,19.23
2017-11-14T07:15:57.290Z,19.43
2017-11-14T07:19:02.630Z,14.03
2017-11-14T07:22:07.541Z,14.90
2017-11-14T07:25:13.160Z,16.50
2017-11-14T07:28:18.620Z,18.80
2017-11-14T07:31:24.481Z,16.50
2017-11-14T07:34:30.776Z,16.00
2017-11-14T07:37:35.742Z,15.40
2017-11-14T07:40:41.450Z,19.87
2017-11-14T07:43:46.798Z,14.90
2017-11-14T07:46:52.444Z,18.83
2017-11-14T07:49:58.179Z,19.30
2017-11-14T07:53:02.995Z,17.77
2017-11-14T07:56:08.390Z,19.33
2017-11-14T07:59:13.864Z,17.97
2017-11-14T08:02:19.337Z,20.70
2017-11-14T08:05:24.893Z,19.00
2017-11-14T08:08:30.053Z,18.90
2017-11-14T08:11:36.613Z,26.33
2017-11-14T08:14:42.220Z,17.67
2017-11-14T08:17:47.188Z,18.17
2017-11-14T08:20:52.668Z,18.43
2017-11-14T08:23:57.629Z,18.97
2017-11-14T08:27:02.758Z,20.73
2017-11-14T08:30:08.283Z,16.70
2017-11-14T08:33:13.305Z,16.90
2017-11-14T08:36:19.497Z,16.37
2017-11-14T08:39:24.746Z,18.53
2017-11-14T08:42:29.432Z,13.60
2017-11-14T08:45:34.953Z,20.33
2017-11-14T08:48:41.204Z,15.83
2017-11-14T08:51:46.613Z,14.20
2017-11-14T08:54:51.652Z,19.00
2017-11-14T08:57:57.349Z,33.43
2017-11-14T09:01:03.841Z,18.10
2017-11-14T09:04:09.487Z,20.60
2017-11-14T09:07:15.138Z,18.60
2017-11-14T09:10:21.605Z,17.23
2017-11-14T09:13:27.199Z,22.17
2017-11-14T09:16:33.018Z,19.53
2017-11-14T09:19:37.973Z,23.53
2017-11-14T09:22:44.297Z,24.20
2017-11-14T09:25:50.160Z,18.77
2017-11-14T09:28:55.926Z,21.60
2017-11-14T09:32:01.793Z,16.00
2017-11-14T09:35:07.885Z,14.80
2017-11-14T09:38:14.374Z,14.03
2017-11-14T09:41:20.093Z,18.30
2017-11-14T09:44:25.211Z,21.63
2017-11-14T09:47:30.939Z,20.90
2017-11-14T09:50:36.014Z,25.63
2017-11-14T09:53:41.600Z,15.40
2017-11-14T09:56:46.905Z,18.53
2017-11-14T09:59:51.709Z,27.97
2017-11-14T10:02:56.598Z,18.37
2017-11-14T10:06:01.834Z,15.77
2017-11-14T10:09:07.077Z,13.37
2017-11-14T10:12:12.896Z,18.20
2017-11-14T10:15:17.894Z,17.90
2017-11-14T10:18:22.768Z,23.60
2017-11-14T10:21:28.581Z,26.20
2017-11-14T10:24:33.982Z,16.73
2017-11-14T10:27:39.600Z,21.50
2017-11-14T10:30:44.522Z,30.73
2017-11-14T10:33:49.874Z,25.10
2017-11-14T10:36:54.909Z,30.87
2017-11-14T10:39:59.862Z,25.30
2017-11-14T10:43:05.683Z,31.67
2017-11-14T10:46:10.521Z,25.40
2017-11-14T10:49:16.136Z,26.40
2017-11-14T10:52:23.545Z,35.30
2017-11-14T10:55:30.912Z,38.00
2017-11-14T10:58:37.666Z,35.90
2017-11-14T11:01:42.841Z,31.00
2017-11-14T11:04:47.785Z,32.17
2017-11-14T11:07:53.869Z,36.93
2017-11-14T11:10:58.850Z,39.57
2017-11-14T11:14:05.574Z,42.93
2017-11-14T11:17:12.780Z,34.20
2017-11-14T11:20:17.594Z,33.10
2017-11-14T11:23:22.437Z,33.07
2017-11-14T11:26:28.090Z,34.73
2017-11-14T11:29:33.093Z,30.47
2017-11-14T11:32:38.358Z,29.33
2017-11-14T11:35:45.037Z,29.67
2017-11-14T11:38:50.407Z,26.83
2017-11-14T11:41:56.076Z,23.90
2017-11-14T11:45:01.481Z,25.00
2017-11-14T11:48:06.580Z,24.60
2017-11-14T11:51:12.189Z,22.60
2017-11-14T11:54:18.048Z,20.20
2017-11-14T11:57:25.529Z,21.97
2017-11-14T12:00:38.787Z,22.87
2017-11-14T12:03:46.711Z,22.77
2017-11-14T12:06:52.468Z,27.80
2017-11-14T12:09:59.073Z,19.60
2017-11-14T12:13:04.741Z,30.10
2017-11-14T12:16:10.168Z,22.33
2017-11-14T12:19:16.740Z,25.43
2017-11-14T12:22:23.057Z,21.10
2017-11-14T12:25:28.662Z,21.33
2017-11-14T12:28:33.389Z,20.43
2017-11-14T12:31:38.454Z,19.73
2017-11-14T12:34:43.290Z,19.73
2017-11-14T12:37:48.515Z,17.50
2017-11-14T12:40:53.795Z,25.70
2017-11-14T12:43:59.329Z,17.40
2017-11-14T12:47:04.253Z,25.10
2017-11-14T12:50:10.995Z,20.07
2017-11-14T12:53:16.725Z,18.90
2017-11-14T12:56:21.749Z,23.37
2017-11-14T12:59:28.953Z,24.17
2017-11-14T13:02:35.628Z,15.00
2017-11-14T13:05:40.996Z,18.83
2017-11-14T13:08:46.365Z,16.97
2017-11-14T13:11:53.305Z,16.83
2017-11-14T13:14:57.989Z,18.60
2017-11-14T13:18:05.188Z,17.13
2017-11-14T13:21:10.881Z,17.63
2017-11-14T13:24:17.992Z,18.83
2017-11-14T13:27:25.535Z,18.23
2017-11-14T13:30:30.875Z,19.77
2017-11-14T13:33:35.912Z,14.57
2017-11-14T13:36:41.708Z,19.60
2017-11-14T13:39:46.605Z,14.87
2017-11-14T13:42:51.570Z,17.97
2017-11-14T13:45:57.113Z,17.17
2017-11-14T13:49:03.675Z,11.03
2017-11-14T13:52:09.829Z,20.10
2017-11-14T13:55:15.409Z,14.23
2017-11-14T13:58:22.971Z,14.27
2017-11-14T14:01:30.097Z,12.53
2017-11-14T14:04:35.092Z,17.10
2017-11-14T14:07:40.881Z,13.67
2017-11-14T14:10:46.202Z,13.67
2017-11-14T14:13:52.268Z,14.33
2017-11-14T14:16:57.846Z,16.40
2017-11-14T14:20:03.400Z,14.67
2017-11-14T14:23:08.626Z,12.87
2017-11-14T14:26:14.428Z,16.33
2017-11-14T14:29:19.889Z,18.27
2017-11-14T14:32:25.374Z,14.27
2017-11-14T14:35:30.709Z,21.77
2017-11-14T14:38:36.581Z,14.03
2017-11-14T14:41:41.372Z,18.60
2017-11-14T14:44:46.468Z,13.50
2017-11-14T14:47:51.617Z,26.17
2017-11-14T14:50:57.841Z,16.33
2017-11-14T14:54:02.905Z,10.67
2017-11-14T14:57:08.361Z,13.50
2017-11-14T15:00:14.033Z,16.30
2017-11-14T15:03:20.263Z,12.20
2017-11-14T15:06:26.087Z,19.77
2017-11-14T15:09:31.754Z,14.43
2017-11-14T15:12:37.608Z,14.17
2017-11-14T15:15:43.126Z,16.43
2017-11-14T15:18:49.253Z,15.77
2017-11-14T15:21:55.768Z,18.23
2017-11-14T15:25:00.762Z,20.33
2017-11-14T15:28:06.702Z,16.77
2017-11-14T15:31:12.636Z,15.90
2017-11-14T15:34:18.265Z,15.60
2017-11-14T15:37:24.085Z,15.13
2017-11-14T15:40:28.944Z,19.43
2017-11-14T15:43:34.880Z,23.97
2017-11-14T15:46:40.561Z,29.30
2017-11-14T15:49:45.539Z,24.23
2017-11-14T15:52:51.993Z,27.97
2017-11-14T15:55:58.469Z,23.10
2017-11-14T15:59:04.493Z,17.00
2017-11-14T16:02:09.255Z,16.03
2017-11-14T16:05:14.800Z,15.13
2017-11-14T16:08:21.731Z,16.93
2017-11-14T16:11:27.755Z,28.53
2017-11-14T16:14:33.801Z,17.60
2017-11-14T16:17:39.582Z,19.23
2017-11-14T16:20:45.261Z,23.90
2017-11-14T16:23:50.784Z,16.37
2017-11-14T16:26:56.209Z,17.30
2017-11-14T16:30:02.934Z,18.27
2017-11-14T16:33:07.788Z,26.23
2017-11-14T16:36:12.652Z,40.73
2017-11-14T16:39:18.271Z,37.40
2017-11-14T16:42:24.722Z,34.00
2017-11-14T16:45:30.142Z,33.03
2017-11-14T16:48:37.738Z,23.37
2017-11-14T16:51:47.325Z,19.37
2017-11-14T16:54:53.285Z,26.03
2017-11-14T16:58:01.843Z,28.50
2017-11-14T17:01:07.022Z,27.17
2017-11-14T17:04:14.485Z,25.07
2017-11-14T17:07:20.111Z,17.63
2017-11-14T17:10:25.901Z,19.03
2017-11-14T17:13:31.573Z,22.23
2017-11-14T17:16:36.925Z,31.67
2017-11-14T17:19:43.130Z,31.03
2017-11-14T17:22:48.508Z,17.48
2017-11-14T17:25:54.797Z,19.83
2017-11-14T17:29:01.173Z,22.07
2017-11-14T17:32:07.698Z,18.33
2017-11-14T17:35:12.786Z,18.80
2017-11-14T17:38:18.533Z,26.40
2017-11-14T17:41:25.386Z,20.67
2017-11-14T17:44:30.327Z,16.70
2017-11-14T17:47:37.591Z,22.43
2017-11-14T17:50:44.191Z,15.70
2017-11-14T17:53:49.556Z,16.83
2017-11-14T17:56:55.213Z,17.40
2017-11-14T18:00:01.881Z,19.20
2017-11-14T18:03:07.554Z,15.63
2017-11-14T18:06:13.434Z,14.47
2017-11-14T18:09:18.432Z,13.73
2017-11-14T18:12:23.369Z,11.23
2017-11-14T18:15:38.140Z,14.80
2017-11-14T18:18:44.874Z,13.60
2017-11-14T18:21:52.820Z,16.80
2017-11-14T18:25:00.337Z,17.53
2017-11-14T18:28:05.797Z,17.40
2017-11-14T18:31:10.961Z,13.23
2017-11-14T18:34:19.136Z,14.73
2017-11-14T18:37:24.273Z,16.77
2017-11-14T18:40:29.776Z,19.07
2017-11-14T18:43:35.755Z,26.23
2017-11-14T18:46:40.543Z,16.33
2017-11-14T18:49:52.420Z,13.80
2017-11-14T18:52:57.398Z,12.63
2017-11-14T18:56:03.608Z,15.73
2017-11-14T18:59:10.090Z,13.63
2017-11-14T19:02:15.188Z,19.97
2017-11-14T19:05:21.925Z,16.13
2017-11-14T19:08:28.349Z,14.43
2017-11-14T19:11:34.022Z,27.73
2017-11-14T19:14:39.725Z,28.33
2017-11-14T19:17:45.147Z,19.43
2017-11-14T19:20:51.513Z,26.57
2017-11-14T19:23:57.257Z,30.77
2017-11-14T19:27:04.395Z,36.60
2017-11-14T19:30:10.625Z,35.53
2017-11-14T19:33:15.539Z,40.23
2017-11-14T19:36:20.426Z,41.87
2017-11-14T19:39:25.854Z,40.10
2017-11-14T19:42:30.680Z,30.73
2017-11-14T19:45:36.601Z,28.23
2017-11-14T19:48:42.897Z,27.40
2017-11-14T19:51:48.021Z,15.57
2017-11-14T19:54:53.049Z,16.13
2017-11-14T19:57:58.173Z,24.90
2017-11-14T20:01:03.642Z,26.17
2017-11-14T20:04:08.865Z,23.27
2017-11-14T20:07:14.211Z,22.93
2017-11-14T20:10:19.501Z,24.70
2017-11-14T20:13:25.285Z,21.07
2017-11-14T20:16:30.369Z,24.77
2017-11-14T20:19:36.193Z,19.67
2017-11-14T20:22:41.886Z,22.63
2017-11-14T20:25:46.709Z,21.60
2017-11-14T20:28:52.103Z,33.53
2017-11-14T20:31:57.129Z,26.03
2017-11-14T20:35:02.546Z,23.77
2017-11-14T20:38:07.393Z,20.07
2017-11-14T20:41:13.124Z,23.00
2017-11-14T20:44:17.821Z,27.90
2017-11-14T20:47:22.753Z,23.90
2017-11-14T20:50:28.138Z,25.07
2017-11-14T20:53:33.630Z,24.03
2017-11-14T20:56:39.341Z,21.90
2017-11-14T20:59:45.695Z,24.83
2017-11-14T21:02:51.245Z,31.13
2017-11-14T21:05:58.046Z,27.03
2017-11-14T21:09:03.695Z,28.37
2017-11-14T21:12:08.994Z,22.80
2017-11-14T21:15:14.592Z,30.13
2017-11-14T21:18:20.864Z,28.00
2017-11-14T21:21:27.868Z,33.80
2017-11-14T21:24:32.730Z,34.40
2017-11-14T21:27:38.993Z,30.70
2017-11-14T21:30:44.666Z,30.73
2017-11-14T21:33:49.902Z,36.07
2017-11-14T21:36:55.987Z,33.23
2017-11-14T21:40:01.613Z,31.37
2017-11-14T21:43:07.185Z,35.10
2017-11-14T21:46:12.442Z,35.70
2017-11-14T21:49:17.969Z,30.30
2017-11-14T21:52:23.817Z,28.73
2017-11-14T21:55:29.286Z,32.80
2017-11-14T21:58:34.625Z,33.67
2017-11-14T22:01:39.603Z,33.10
2017-11-14T22:04:45.931Z,28.30
2017-11-14T22:07:52.125Z,29.63
2017-11-14T22:10:58.324Z,32.40
2017-11-14T22:14:03.856Z,33.33
2017-11-14T22:17:09.647Z,25.30
2017-11-14T22:20:15.626Z,28.13
2017-11-14T22:23:20.337Z,36.20
2017-11-14T22:26:26.026Z,33.87
2017-11-14T22:29:31.169Z,32.63
2017-11-14T22:32:36.456Z,33.80
2017-11-14T22:35:41.512Z,29.97
2017-11-14T22:38:47.496Z,28.33
2017-11-14T22:41:53.111Z,32.00
2017-11-14T22:44:58.333Z,31.00
2017-11-14T22:48:03.553Z,27.67
2017-11-14T22:51:08.425Z,23.23
2017-11-14T22:54:14.926Z,22.73
2017-11-14T22:57:20.541Z,27.17
2017-11-14T23:00:26.853Z,27.93
2017-11-14T23:03:32.285Z,37.10
2017-11-14T23:06:38.653Z,27.83
2017-11-14T23:09:44.893Z,24.03
2017-11-14T23:12:50.569Z,26.13
2017-11-14T23:15:56.381Z,23.53
2017-11-14T23:19:01.709Z,22.30
2017-11-14T23:22:08.363Z,22.17
2017-11-14T23:25:13.772Z,23.10
2017-11-14T23:28:19.520Z,23.27
2017-11-14T23:31:24.368Z,25.70
2017-11-14T23:34:29.701Z,27.00
2017-11-14T23:37:35.453Z,25.20
2017-11-14T23:40:40.644Z,26.00
2017-11-14T23:43:46.203Z,24.63
2017-11-14T23:46:51.789Z,25.40
2017-11-14T23:49:57.777Z,27.67
2017-11-14T23:53:02.744Z,24.97
2017-11-14T23:56:08.104Z,30.20
2017-11-14T23:59:13.054Z,24.83
